Time;durP1;ratioP1;P1;durP2;ratioP2;P2;SDS_P1;SDS_P2;PMS_P1;PMS_P2;Temp;Humidity;BMP_temperature;BMP_pressure;BME280_temperature;BME280_humidity;BME280_pressure;Samples;Min_cycle;Max_cycle;Signal;HPM_P1;HPM_P2
2022/11/13 00:01:31;;;;;;;17.87;14.87;;;;;;;10.11;100.00;102632.38;4984242;28;20321;-55
2022/11/13 00:03:58;;;;;;;21.27;15.33;;;;;;;10.27;100.00;102634.69;4975826;28;20708;-54
2022/11/13 00:06:25;;;;;;;18.27;14.57;;;;;;;10.21;100.00;102644.94;4973430;28;20241;-54
2022/11/13 00:08:53;;;;;;;17.03;14.67;;;;;;;10.38;100.00;102635.00;4978695;28;21708;-54
2022/11/13 00:11:20;;;;;;;17.47;15.37;;;;;;;10.61;100.00;102633.09;4974657;28;20321;-55
2022/11/13 00:13:49;;;;;;;18.20;14.80;;;;;;;10.62;100.00;102632.22;4973316;28;20248;-55
2022/11/13 00:16:17;;;;;;;18.53;16.03;;;;;;;10.45;100.00;102629.09;4978390;28;20338;-54
2022/11/13 00:18:44;;;;;;;17.63;15.00;;;;;;;10.35;100.00;102633.16;4977302;28;20661;-54
2022/11/13 00:21:13;;;;;;;21.07;14.10;;;;;;;10.22;100.00;102628.38;4983343;28;20321;-53
2022/11/13 00:23:40;;;;;;;19.47;16.13;;;;;;;10.36;100.00;102628.84;4977287;28;20700;-53
2022/11/13 00:26:08;;;;;;;19.33;14.83;;;;;;;10.58;100.00;102625.13;4978055;28;20270;-53
2022/11/13 00:28:35;;;;;;;17.23;14.57;;;;;;;10.49;100.00;102613.50;4981353;28;20340;-54
2022/11/13 00:31:03;;;;;;;16.50;13.47;;;;;;;10.60;100.00;102618.16;4979733;28;20247;-53
2022/11/13 00:33:30;;;;;;;16.93;13.40;;;;;;;10.63;100.00;102619.13;4981280;28;20244;-54
2022/11/13 00:36:02;;;;;;;16.43;14.63;;;;;;;10.39;100.00;102613.16;4983858;28;20249;-55
2022/11/13 00:38:29;;;;;;;17.77;15.00;;;;;;;10.41;100.00;102620.25;4979990;28;20230;-54
2022/11/13 00:40:55;;;;;;;14.67;12.77;;;;;;;10.64;100.00;102614.78;4981938;28;20269;-55
2022/11/13 00:43:22;;;;;;;15.20;13.30;;;;;;;10.65;100.00;102611.31;4987691;28;20317;-54
2022/11/13 00:45:49;;;;;;;18.53;14.33;;;;;;;10.59;100.00;102613.75;4979511;28;20312;-55
2022/11/13 00:48:16;;;;;;;15.93;13.93;;;;;;;10.46;100.00;102615.16;4985595;28;20612;-53
2022/11/13 00:50:44;;;;;;;13.13;11.40;;;;;;;10.64;100.00;102609.53;4980928;28;20670;-53
2022/11/13 00:53:11;;;;;;;14.47;12.73;;;;;;;10.70;100.00;102609.69;4985163;28;20313;-53
2022/11/13 00:55:37;;;;;;;20.93;14.67;;;;;;;10.45;100.00;102603.72;4984174;28;20245;-54
2022/11/13 00:58:04;;;;;;;14.77;11.93;;;;;;;10.58;100.00;102614.59;4971724;28;20716;-53
2022/11/13 01:00:31;;;;;;;13.53;12.10;;;;;;;10.51;100.00;102609.16;4980615;28;20705;-53
2022/11/13 01:02:58;;;;;;;16.00;12.50;;;;;;;10.46;100.00;102605.53;4983720;28;20324;-54
2022/11/13 01:05:26;;;;;;;12.50;11.03;;;;;;;10.84;100.00;102608.34;4979189;28;20233;-54
2022/11/13 01:07:53;;;;;;;15.17;11.63;;;;;;;10.83;100.00;102601.31;4980701;28;20245;-54
2022/11/13 01:10:20;;;;;;;14.83;11.00;;;;;;;10.97;100.00;102593.81;4986004;28;20302;-59
2022/11/13 01:12:46;;;;;;;13.17;11.63;;;;;;;10.71;100.00;102586.09;4990341;28;20668;-54
2022/11/13 01:15:13;;;;;;;12.33;11.07;;;;;;;10.72;100.00;102585.25;4978701;28;20619;-54
2022/11/13 01:17:40;;;;;;;15.30;12.20;;;;;;;10.77;100.00;102585.38;4982475;28;20243;-55
2022/11/13 01:20:07;;;;;;;15.30;12.00;;;;;;;10.75;100.00;102587.97;4981723;28;20324;-53
2022/11/13 01:22:35;;;;;;;16.37;11.67;;;;;;;10.90;100.00;102587.50;4978381;28;20239;-54
2022/11/13 01:25:02;;;;;;;12.03;10.70;;;;;;;10.99;100.00;102587.75;4985376;28;20252;-54
2022/11/13 01:27:29;;;;;;;20.70;13.13;;;;;;;11.05;100.00;102594.00;4985485;28;20230;-54
2022/11/13 01:29:55;;;;;;;17.47;13.67;;;;;;;10.89;100.00;102580.47;4982818;28;20229;-53
2022/11/13 01:32:22;;;;;;;14.30;11.10;;;;;;;11.02;100.00;102571.19;4975021;28;20317;-53
2022/11/13 01:34:48;;;;;;;16.53;12.20;;;;;;;10.87;100.00;102578.63;4983213;28;20783;-53
2022/11/13 01:37:15;;;;;;;13.33;12.03;;;;;;;11.11;100.00;102573.16;4975875;28;20283;-53
2022/11/13 01:39:43;;;;;;;15.47;13.00;;;;;;;11.03;100.00;102567.72;4981026;28;20340;-53
2022/11/13 01:42:10;;;;;;;15.30;12.43;;;;;;;10.95;100.00;102575.38;4976486;28;20250;-53
2022/11/13 01:44:48;;;;;;;15.43;13.40;;;;;;;10.78;100.00;102579.28;4984901;28;20246;-54
2022/11/13 01:47:15;;;;;;;13.80;12.43;;;;;;;10.81;100.00;102571.50;4980433;28;20237;-53
2022/11/13 01:49:42;;;;;;;16.53;13.20;;;;;;;10.49;100.00;102563.59;4982025;28;20225;-53
2022/11/13 01:52:11;;;;;;;14.77;13.10;;;;;;;10.74;100.00;102564.28;4978492;28;20231;-53
2022/11/13 01:54:41;;;;;;;16.13;14.33;;;;;;;10.50;100.00;102567.13;4979843;28;20241;-53
2022/11/13 01:57:09;;;;;;;18.17;14.13;;;;;;;10.44;100.00;102553.81;4981120;28;20444;-53
2022/11/13 01:59:39;;;;;;;15.27;13.63;;;;;;;10.59;100.00;102554.22;4972488;28;20260;-54
2022/11/13 02:02:05;;;;;;;16.57;13.13;;;;;;;10.47;100.00;102554.78;4978149;28;20234;-53
2022/11/13 02:04:32;;;;;;;14.43;12.40;;;;;;;10.56;100.00;102558.50;4979341;28;20260;-53
2022/11/13 02:07:00;;;;;;;14.67;13.13;;;;;;;10.59;100.00;102561.22;4972056;28;20317;-53
2022/11/13 02:09:29;;;;;;;13.63;11.77;;;;;;;10.55;100.00;102548.84;4978079;28;20238;-54
2022/11/13 02:11:56;;;;;;;14.80;11.87;;;;;;;10.69;100.00;102550.13;4971957;28;20317;-54
2022/11/13 02:14:27;;;;;;;14.73;12.40;;;;;;;10.52;100.00;102549.66;4982077;28;20234;-54
2022/11/13 02:16:57;;;;;;;16.53;13.27;;;;;;;10.49;100.00;102544.31;4978601;28;20245;-55
2022/11/13 02:19:26;;;;;;;15.00;11.03;;;;;;;10.46;100.00;102541.63;4972203;28;20231;-54
2022/11/13 02:21:58;;;;;;;13.70;11.37;;;;;;;10.51;100.00;102543.50;4975378;28;20242;-53
2022/11/13 02:24:28;;;;;;;14.67;12.60;;;;;;;10.58;100.00;102541.06;4976971;28;20317;-55
2022/11/13 02:26:58;;;;;;;13.03;11.87;;;;;;;10.49;100.00;102549.56;4974027;28;20233;-56
2022/11/13 02:29:24;;;;;;;13.90;11.97;;;;;;;10.55;100.00;102544.47;4972654;28;20241;-55
2022/11/13 02:31:51;;;;;;;12.03;10.83;;;;;;;10.58;100.00;102539.31;4973412;28;20688;-54
2022/11/13 02:34:17;;;;;;;15.53;12.47;;;;;;;10.48;100.00;102540.78;4976247;28;20238;-53
2022/11/13 02:36:44;;;;;;;13.37;10.67;;;;;;;10.75;100.00;102542.41;4979289;28;20333;-54
2022/11/13 02:39:12;;;;;;;12.47;10.00;;;;;;;10.86;100.00;102538.34;4978356;28;20682;-54
2022/11/13 02:41:40;;;;;;;13.43;12.00;;;;;;;10.59;100.00;102529.69;4978698;28;20868;-54
2022/11/13 02:44:07;;;;;;;12.80;10.40;;;;;;;10.73;100.00;102528.34;4981451;28;20843;-53
2022/11/13 02:46:34;;;;;;;13.07;10.20;;;;;;;10.82;100.00;102525.97;4982040;28;20264;-53
2022/11/13 02:49:00;;;;;;;11.77;10.23;;;;;;;10.66;100.00;102529.91;4977391;28;20326;-53
2022/11/13 02:51:27;;;;;;;12.17;10.07;;;;;;;10.74;100.00;102522.25;4977690;28;20365;-55
2022/11/13 02:53:54;;;;;;;12.60;10.50;;;;;;;10.70;100.00;102528.25;4976991;28;20431;-54
2022/11/13 02:56:21;;;;;;;13.33;9.97;;;;;;;10.59;100.00;102511.31;4981785;28;20603;-55
2022/11/13 02:58:49;;;;;;;11.20;9.93;;;;;;;10.65;100.00;102514.13;4983886;28;20340;-53
2022/11/13 03:01:16;;;;;;;10.87;9.60;;;;;;;10.66;100.00;102502.75;4974186;28;20713;-54
2022/11/13 03:03:42;;;;;;;10.90;9.70;;;;;;;10.71;100.00;102506.41;4973531;28;20368;-53
2022/11/13 03:06:09;;;;;;;11.23;9.27;;;;;;;10.67;100.00;102494.00;4978200;28;20261;-53
2022/11/13 03:08:36;;;;;;;12.63;11.20;;;;;;;10.50;100.00;102485.72;4975665;28;20262;-53
2022/11/13 03:11:07;;;;;;;10.50;8.67;;;;;;;10.49;100.00;102500.56;4964920;28;20797;-53
2022/11/13 03:13:34;;;;;;;10.83;9.70;;;;;;;10.50;100.00;102504.09;4975064;28;20230;-53
2022/11/13 03:16:07;;;;;;;10.63;9.63;;;;;;;10.61;100.00;102500.00;4974898;28;20244;-53
2022/11/13 03:18:34;;;;;;;10.03;9.03;;;;;;;10.57;100.00;102497.28;4975249;28;20659;-54
2022/11/13 03:21:06;;;;;;;9.63;8.63;;;;;;;10.76;100.00;102499.53;4975656;28;20261;-53
2022/11/13 03:23:33;;;;;;;11.40;8.83;;;;;;;10.64;100.00;102488.72;4980208;28;20229;-53
2022/11/13 03:26:03;;;;;;;12.57;9.60;;;;;;;10.52;100.00;102489.25;4975175;28;20238;-55
2022/11/13 03:28:30;;;;;;;10.13;9.13;;;;;;;10.49;100.00;102495.31;4979684;28;20237;-54
2022/11/13 03:30:57;;;;;;;10.10;8.83;;;;;;;10.52;100.00;102499.75;4977577;28;20230;-54
2022/11/13 03:33:25;;;;;;;11.10;9.93;;;;;;;10.41;100.00;102502.06;4976043;28;20234;-54
2022/11/13 03:35:53;;;;;;;10.30;8.97;;;;;;;10.48;100.00;102495.25;4978358;28;20245;-53
2022/11/13 03:38:19;;;;;;;11.97;9.83;;;;;;;10.40;100.00;102499.44;4974445;28;20256;-53
2022/11/13 03:40:47;;;;;;;11.13;9.87;;;;;;;10.49;100.00;102495.31;4979071;28;20688;-54
2022/11/13 03:43:14;;;;;;;11.80;10.13;;;;;;;10.48;100.00;102505.75;4977036;28;20250;-54
2022/11/13 03:45:41;;;;;;;11.43;9.27;;;;;;;10.51;100.00;102509.38;4973706;28;20256;-53
2022/11/13 03:48:08;;;;;;;9.33;8.47;;;;;;;10.58;100.00;102506.91;4966635;28;20739;-54
2022/11/13 03:50:37;;;;;;;9.57;8.43;;;;;;;10.48;100.00;102514.53;4976722;28;20238;-55
2022/11/13 03:53:04;;;;;;;10.90;9.70;;;;;;;10.66;100.00;102526.41;4975367;28;20287;-54
2022/11/13 03:55:31;;;;;;;9.50;8.27;;;;;;;10.62;100.00;102520.16;4977383;28;20239;-53
2022/11/13 03:57:58;;;;;;;10.37;8.87;;;;;;;10.62;100.00;102517.53;4971596;28;20285;-53
2022/11/13 04:00:25;;;;;;;9.80;8.90;;;;;;;10.59;100.00;102516.56;4977728;28;20262;-54
2022/11/13 04:02:52;;;;;;;10.43;8.97;;;;;;;10.56;100.00;102512.13;4982247;28;20783;-52
2022/11/13 04:05:18;;;;;;;9.23;8.13;;;;;;;10.56;100.00;102511.22;4978936;28;20245;-54
2022/11/13 04:07:47;;;;;;;13.33;9.37;;;;;;;10.47;100.00;102506.63;4984719;28;20265;-54
2022/11/13 04:10:14;;;;;;;11.07;8.70;;;;;;;10.50;100.00;102494.47;4982657;28;20230;-53
2022/11/13 04:12:41;;;;;;;11.20;8.83;;;;;;;10.44;100.00;102494.28;4981867;28;20265;-52
2022/11/13 04:15:08;;;;;;;9.17;8.20;;;;;;;10.48;100.00;102492.63;4979823;28;20236;-54
2022/11/13 04:17:35;;;;;;;13.47;9.33;;;;;;;10.45;100.00;102493.44;4979831;28;20285;-53
2022/11/13 04:20:02;;;;;;;9.60;8.67;;;;;;;10.39;100.00;102484.50;4975535;28;20230;-53
2022/11/13 04:22:29;;;;;;;9.30;8.17;;;;;;;10.54;100.00;102478.81;4982544;28;20238;-54
2022/11/13 04:24:57;;;;;;;8.87;7.97;;;;;;;10.52;100.00;102474.38;4981218;28;20316;-53
2022/11/13 04:27:24;;;;;;;9.50;8.60;;;;;;;10.68;100.00;102475.69;4980303;28;20657;-55
2022/11/13 04:29:52;;;;;;;11.37;10.17;;;;;;;10.39;100.00;102482.78;4982353;28;20254;-53
2022/11/13 04:32:19;;;;;;;9.63;8.47;;;;;;;10.66;100.00;102479.13;4979109;28;20361;-54
2022/11/13 04:34:46;;;;;;;10.10;9.13;;;;;;;10.56;100.00;102474.47;4978767;28;20240;-53
2022/11/13 04:37:13;;;;;;;9.37;8.27;;;;;;;10.51;100.00;102467.34;4978604;28;20289;-54
2022/11/13 04:39:40;;;;;;;12.93;9.07;;;;;;;10.47;100.00;102467.22;4981045;28;20229;-53
2022/11/13 04:44:55;;;;;;;10.23;8.80;;;;;;;10.40;100.00;102475.78;4985099;28;20794;-55
2022/11/13 04:47:22;;;;;;;9.57;8.67;;;;;;;10.34;100.00;102476.50;4984003;28;20484;-53
2022/11/13 04:49:49;;;;;;;10.30;9.30;;;;;;;10.23;100.00;102475.28;4985524;28;20240;-57
2022/11/13 04:52:18;;;;;;;11.07;9.43;;;;;;;10.32;100.00;102478.22;4980394;28;20241;-55
2022/11/13 04:54:45;;;;;;;9.03;8.13;;;;;;;10.25;100.00;102470.97;4975206;28;20238;-54
2022/11/13 04:57:13;;;;;;;12.37;10.07;;;;;;;10.21;100.00;102474.34;4976032;28;20242;-53
2022/11/13 04:59:40;;;;;;;9.83;8.83;;;;;;;10.36;100.00;102476.56;4983447;28;20357;-53
2022/11/13 05:02:08;;;;;;;10.20;9.10;;;;;;;10.38;100.00;102474.84;4980705;28;20253;-54
2022/11/13 05:04:34;;;;;;;12.43;8.17;;;;;;;10.24;100.00;102472.69;4984283;28;20225;-57
2022/11/13 05:07:01;;;;;;;9.37;8.57;;;;;;;10.35;100.00;102469.50;4982684;28;20250;-53
2022/11/13 05:09:28;;;;;;;9.53;8.53;;;;;;;10.39;100.00;102476.63;4983360;28;20218;-54
2022/11/13 05:11:55;;;;;;;11.27;9.97;;;;;;;10.42;100.00;102482.84;4979946;28;20226;-53
2022/11/13 05:14:23;;;;;;;11.13;9.00;;;;;;;10.48;100.00;102477.75;4980051;28;20712;-54
2022/11/13 05:16:50;;;;;;;10.00;8.37;;;;;;;10.62;100.00;102475.50;4980060;28;20237;-53
2022/11/13 05:19:18;;;;;;;10.93;9.30;;;;;;;10.52;100.00;102466.50;4976382;28;20234;-53
2022/11/13 05:21:45;;;;;;;11.40;10.13;;;;;;;10.44;100.00;102475.03;4975018;28;20253;-53
2022/11/13 05:24:12;;;;;;;13.63;10.90;;;;;;;10.04;100.00;102472.13;4972007;28;20317;-53
2022/11/13 05:26:40;;;;;;;12.70;10.03;;;;;;;10.17;100.00;102469.84;4984450;28;20249;-54
2022/11/13 05:29:07;;;;;;;11.63;9.30;;;;;;;10.14;100.00;102475.88;4976259;28;20289;-54
2022/11/13 05:31:35;;;;;;;10.63;9.33;;;;;;;10.14;100.00;102475.00;4976410;28;20453;-53
2022/11/13 05:34:03;;;;;;;11.20;9.73;;;;;;;10.19;100.00;102462.91;4978003;28;20242;-54
2022/11/13 05:36:31;;;;;;;9.97;8.93;;;;;;;10.21;100.00;102471.72;4980738;28;20238;-58
2022/11/13 05:38:58;;;;;;;15.53;9.77;;;;;;;10.26;100.00;102470.16;4976712;28;20233;-53
2022/11/13 05:41:25;;;;;;;10.67;9.67;;;;;;;10.22;100.00;102468.25;4980249;28;20809;-53
2022/11/13 05:43:52;;;;;;;9.67;8.77;;;;;;;10.43;100.00;102461.00;4977009;28;20238;-53
2022/11/13 05:46:20;;;;;;;10.53;9.53;;;;;;;10.16;100.00;102468.97;4984557;28;20288;-53
2022/11/13 05:48:53;;;;;;;9.60;8.67;;;;;;;10.03;100.00;102467.72;4980909;28;20261;-53
2022/11/13 05:51:21;;;;;;;10.17;9.07;;;;;;;10.25;100.00;102468.34;4971129;28;20231;-53
2022/11/13 05:53:48;;;;;;;13.97;8.60;;;;;;;10.30;100.00;102466.75;4980346;28;20288;-58
2022/11/13 05:56:17;;;;;;;9.73;8.73;;;;;;;10.38;100.00;102459.97;4979209;28;20269;-59
2022/11/13 05:58:45;;;;;;;8.87;7.93;;;;;;;10.46;100.00;102453.22;4967671;28;20234;-53
2022/11/13 06:01:14;;;;;;;12.07;9.57;;;;;;;10.38;100.00;102457.34;4983086;28;20272;-54
2022/11/13 06:03:41;;;;;;;9.47;8.00;;;;;;;10.38;100.00;102454.72;4976215;28;20222;-54
2022/11/13 06:06:11;;;;;;;9.00;7.83;;;;;;;10.43;100.00;102447.88;4975091;28;20226;-53
2022/11/13 06:08:38;;;;;;;9.03;8.13;;;;;;;10.60;100.00;102450.03;4976632;28;20709;-57
2022/11/13 06:11:06;;;;;;;9.43;7.90;;;;;;;10.59;100.00;102443.03;4974992;28;20317;-53
2022/11/13 06:13:34;;;;;;;9.43;8.50;;;;;;;10.67;100.00;102444.09;4972946;28;20302;-53
2022/11/13 06:16:02;;;;;;;9.37;8.53;;;;;;;10.74;100.00;102428.56;4973769;28;20238;-53
2022/11/13 06:18:29;;;;;;;12.13;10.93;;;;;;;10.33;100.00;102437.97;4975604;28;20288;-54
2022/11/13 06:20:56;;;;;;;12.13;10.93;;;;;;;10.26;100.00;102433.41;4974873;28;20336;-53
2022/11/13 06:23:24;;;;;;;12.97;9.93;;;;;;;10.38;100.00;102428.47;4981094;28;20233;-54
2022/11/13 06:25:51;;;;;;;12.80;10.10;;;;;;;10.36;100.00;102432.81;4976269;28;20249;-58
2022/11/13 06:28:18;;;;;;;12.63;10.50;;;;;;;10.47;100.00;102428.72;4978508;28;20231;-55
2022/11/13 06:30:45;;;;;;;15.33;11.37;;;;;;;10.48;100.00;102434.88;4980679;28;20240;-54
2022/11/13 06:33:12;;;;;;;18.13;13.13;;;;;;;10.35;100.00;102431.00;4982055;28;20325;-55
2022/11/13 06:35:39;;;;;;;15.83;14.23;;;;;;;10.10;100.00;102431.16;4978160;28;20724;-53
2022/11/13 06:38:06;;;;;;;18.77;15.10;;;;;;;10.12;100.00;102417.22;4976298;28;20240;-52
2022/11/13 06:40:38;;;;;;;18.43;16.63;;;;;;;9.94;100.00;102430.72;4977612;28;20237;-53
2022/11/13 06:43:05;;;;;;;20.17;16.50;;;;;;;10.09;100.00;102421.50;4981874;28;20229;-54
2022/11/13 06:45:31;;;;;;;17.30;15.40;;;;;;;10.23;100.00;102428.03;4983422;28;20269;-56
2022/11/13 06:47:59;;;;;;;16.67;14.97;;;;;;;10.18;100.00;102420.03;4979352;28;20240;-53
2022/11/13 06:50:26;;;;;;;22.57;16.70;;;;;;;10.16;100.00;102426.09;4979840;28;20233;-53
2022/11/13 06:52:53;;;;;;;22.03;17.50;;;;;;;10.05;100.00;102417.91;4981971;28;20502;-54
2022/11/13 06:55:20;;;;;;;16.23;14.63;;;;;;;10.26;100.00;102412.41;4977745;28;20248;-54
2022/11/13 06:57:48;;;;;;;19.87;16.93;;;;;;;10.29;100.00;102417.75;4977257;28;20237;-54
2022/11/13 07:00:16;;;;;;;21.43;16.07;;;;;;;10.25;100.00;102410.59;4972250;28;20245;-54
2022/11/13 07:02:43;;;;;;;17.60;15.80;;;;;;;10.16;100.00;102412.97;4984689;28;20265;-53
2022/11/13 07:05:10;;;;;;;17.70;15.67;;;;;;;10.21;100.00;102404.38;4981312;28;20249;-54
2022/11/13 07:07:37;;;;;;;23.07;16.10;;;;;;;10.22;100.00;102410.50;4981157;28;20234;-54
2022/11/13 07:10:04;;;;;;;17.90;16.07;;;;;;;10.25;100.00;102406.28;4971408;28;20245;-54
2022/11/13 07:12:31;;;;;;;19.97;15.07;;;;;;;10.36;100.00;102403.03;4970602;28;20226;-53
2022/11/13 07:14:59;;;;;;;16.63;14.93;;;;;;;10.42;100.00;102403.19;4973418;28;20256;-53
2022/11/13 07:17:28;;;;;;;16.70;13.47;;;;;;;10.41;100.00;102404.03;4972690;28;20241;-53
2022/11/13 07:19:55;;;;;;;15.70;13.70;;;;;;;10.31;100.00;102400.28;4973452;28;20316;-55
2022/11/13 07:22:22;;;;;;;15.17;13.57;;;;;;;10.33;100.00;102403.84;4971419;28;20235;-53
2022/11/13 07:24:49;;;;;;;15.20;13.60;;;;;;;10.29;100.00;102404.63;4970753;28;20323;-53
2022/11/13 07:27:15;;;;;;;12.20;11.03;;;;;;;10.27;100.00;102399.31;4969614;28;20241;-53
2022/11/13 07:29:42;;;;;;;13.73;11.57;;;;;;;10.30;100.00;102397.63;4970796;28;20260;-54
2022/11/13 07:32:10;;;;;;;13.00;11.47;;;;;;;10.43;100.00;102400.63;4962895;28;20230;-53
2022/11/13 07:34:37;;;;;;;17.73;11.70;;;;;;;10.33;100.00;102403.84;4966400;28;20231;-53
2022/11/13 07:37:05;;;;;;;14.27;11.03;;;;;;;10.45;100.00;102398.91;4965226;28;20261;-53
2022/11/13 07:39:32;;;;;;;14.50;10.73;;;;;;;10.28;100.00;102405.44;4980782;28;20230;-54
2022/11/13 07:41:59;;;;;;;15.03;11.30;;;;;;;10.25;100.00;102401.00;4976295;28;20263;-53
2022/11/13 07:44:26;;;;;;;15.77;11.70;;;;;;;10.14;100.00;102401.50;4980245;28;20241;-52
2022/11/13 07:46:53;;;;;;;12.93;11.50;;;;;;;10.17;100.00;102406.84;4976610;28;20321;-54
2022/11/13 07:49:22;;;;;;;14.60;10.47;;;;;;;10.28;100.00;102405.44;4975231;28;20261;-53
2022/11/13 07:51:49;;;;;;;17.90;12.53;;;;;;;10.34;100.00;102404.72;4973978;28;20316;-53
2022/11/13 07:54:15;;;;;;;15.97;11.13;;;;;;;10.36;100.00;102397.78;4973598;28;20798;-53
2022/11/13 07:56:42;;;;;;;15.53;12.07;;;;;;;10.42;100.00;102392.69;4977345;28;20787;-53
2022/11/13 07:59:09;;;;;;;13.40;11.10;;;;;;;10.30;100.00;102398.50;4975724;28;20233;-54
2022/11/13 08:01:37;;;;;;;13.73;11.70;;;;;;;10.25;100.00;102385.25;4983015;28;20237;-54
2022/11/13 08:04:04;;;;;;;14.17;12.67;;;;;;;10.36;100.00;102389.91;4979826;28;20250;-53
2022/11/13 08:06:32;;;;;;;14.40;12.23;;;;;;;10.30;100.00;102400.25;4983469;28;20312;-53
2022/11/13 08:08:59;;;;;;;15.20;13.60;;;;;;;10.32;100.00;102402.06;4979713;28;20237;-54
2022/11/13 08:11:26;;;;;;;16.50;13.13;;;;;;;10.16;100.00;102395.47;4979858;28;20234;-53
2022/11/13 08:13:53;;;;;;;16.03;11.97;;;;;;;10.16;100.00;102394.59;4973022;28;20245;-56
2022/11/13 08:16:22;;;;;;;16.33;12.17;;;;;;;10.13;100.00;102386.63;4976884;28;20265;-54
2022/11/13 08:18:49;;;;;;;17.07;13.37;;;;;;;10.18;100.00;102400.75;4980123;28;20919;-53
2022/11/13 08:21:16;;;;;;;19.10;12.63;;;;;;;10.16;100.00;102399.84;4979517;28;20234;-54
2022/11/13 08:23:44;;;;;;;14.80;12.20;;;;;;;10.26;100.00;102399.28;4984322;28;20245;-53
2022/11/13 08:26:12;;;;;;;14.07;12.53;;;;;;;10.40;100.00;102395.28;4984616;28;20238;-54
2022/11/13 08:28:39;;;;;;;14.67;12.07;;;;;;;10.45;100.00;102383.16;4980107;28;20248;-53
2022/11/13 08:31:10;;;;;;;16.70;13.23;;;;;;;10.45;100.00;102382.25;4974695;28;20293;-52
2022/11/13 08:33:37;;;;;;;18.97;12.53;;;;;;;10.37;100.00;102387.31;4978009;28;20238;-54
2022/11/13 08:36:05;;;;;;;14.97;12.93;;;;;;;10.23;100.00;102393.91;4970359;28;20263;-53
2022/11/13 08:38:32;;;;;;;16.30;12.53;;;;;;;10.36;100.00;102382.03;4973636;28;20243;-54
2022/11/13 08:41:01;;;;;;;15.23;12.27;;;;;;;10.18;100.00;102377.13;4971914;28;20234;-53
2022/11/13 08:43:28;;;;;;;15.87;11.97;;;;;;;10.24;100.00;102379.91;4971994;28;20230;-53
2022/11/13 08:45:55;;;;;;;14.33;12.60;;;;;;;10.23;100.00;102391.28;4974847;28;20238;-55
2022/11/13 08:48:23;;;;;;;18.30;12.87;;;;;;;10.15;100.00;102392.81;4979306;28;20584;-57
2022/11/13 08:50:51;;;;;;;22.93;13.10;;;;;;;10.20;100.00;102389.44;4984930;28;20256;-54
2022/11/13 08:53:18;;;;;;;20.10;13.00;;;;;;;10.45;100.00;102393.66;4983707;28;20230;-54
2022/11/13 08:55:45;;;;;;;13.60;10.87;;;;;;;10.52;100.00;102381.56;4985961;28;20241;-55
2022/11/13 08:58:14;;;;;;;14.73;11.20;;;;;;;10.59;100.00;102380.88;4980630;28;20791;-53
2022/11/13 09:00:41;;;;;;;13.83;11.90;;;;;;;10.43;100.00;102379.59;4983016;28;20234;-54
2022/11/13 09:03:11;;;;;;;16.07;12.60;;;;;;;10.46;100.00;102384.06;4976962;28;20245;-53
2022/11/13 09:05:38;;;;;;;16.20;12.33;;;;;;;10.55;100.00;102378.13;4974432;28;20242;-53
2022/11/13 09:08:06;;;;;;;17.47;13.30;;;;;;;10.49;100.00;102379.78;4983400;28;20252;-54
2022/11/13 09:10:33;;;;;;;20.00;13.37;;;;;;;10.38;100.00;102383.84;4984559;28;20230;-52
2022/11/13 09:13:02;;;;;;;19.03;14.20;;;;;;;10.46;100.00;102377.06;4979211;28;20234;-58
2022/11/13 09:15:31;;;;;;;18.63;14.77;;;;;;;10.37;100.00;102389.06;4984876;28;20261;-54
2022/11/13 09:17:58;;;;;;;21.33;15.97;;;;;;;10.38;100.00;102383.84;4988722;28;20257;-54
2022/11/13 09:20:25;;;;;;;17.60;12.80;;;;;;;10.40;100.00;102376.00;4983537;28;20241;-53
2022/11/13 09:22:57;;;;;;;16.87;11.97;;;;;;;10.51;100.00;102374.56;4983833;28;20764;-53
2022/11/13 09:25:23;;;;;;;19.00;13.90;;;;;;;10.33;100.00;102372.34;4978338;28;20230;-56
2022/11/13 09:27:53;;;;;;;16.50;13.60;;;;;;;10.18;100.00;102379.75;4975447;28;20340;-53
2022/11/13 09:30:20;;;;;;;19.50;14.47;;;;;;;10.29;100.00;102381.00;4977805;28;20230;-54
2022/11/13 09:32:52;;;;;;;17.70;14.20;;;;;;;10.37;100.00;102368.94;4971654;28;20234;-54
2022/11/13 09:35:32;;;;;;;20.67;14.53;;;;;;;10.25;100.00;102376.47;4990529;28;20245;-52
2022/11/13 09:38:00;;;;;;;17.53;13.80;;;;;;;10.24;100.00;102372.94;4986211;28;20229;-54
2022/11/13 09:40:31;;;;;;;16.53;13.30;;;;;;;10.38;100.00;102368.09;4978384;28;20245;-53
2022/11/13 09:42:59;;;;;;;18.93;13.87;;;;;;;10.36;100.00;102371.53;4976579;28;20222;-54
2022/11/13 09:45:27;;;;;;;17.17;13.27;;;;;;;10.33;100.00;102371.44;4979167;28;20248;-54
2022/11/13 09:47:57;;;;;;;18.70;14.47;;;;;;;10.29;100.00;102370.47;4972401;28;20254;-55
2022/11/13 09:50:27;;;;;;;17.87;14.17;;;;;;;10.29;100.00;102375.72;4976820;28;20230;-58
2022/11/13 09:52:55;;;;;;;18.73;13.63;;;;;;;10.36;100.00;102363.66;4965780;28;20237;-55
2022/11/13 09:55:28;;;;;;;18.83;15.40;;;;;;;10.33;100.00;102367.09;4975463;28;20238;-53
2022/11/13 09:58:00;;;;;;;14.77;12.97;;;;;;;10.30;100.00;102367.00;4974554;28;20767;-53
2022/11/13 10:00:27;;;;;;;16.40;13.53;;;;;;;10.26;100.00;102370.41;4975972;28;20230;-53
2022/11/13 10:03:01;;;;;;;13.40;12.00;;;;;;;10.35;100.00;102353.97;4983523;28;20288;-55
2022/11/13 10:05:35;;;;;;;14.30;12.07;;;;;;;10.59;100.00;102359.88;4974378;28;20229;-54
2022/11/13 10:08:07;;;;;;;14.43;11.77;;;;;;;10.59;100.00;102358.97;4978360;28;20269;-54
2022/11/13 10:10:46;;;;;;;14.93;13.00;;;;;;;10.55;100.00;102351.88;4982277;28;20244;-54
2022/11/13 10:13:21;;;;;;;14.83;12.87;;;;;;;10.54;100.00;102343.13;4973935;28;20229;-54
2022/11/13 10:15:52;;;;;;;15.13;12.97;;;;;;;10.50;100.00;102336.00;4970305;28;20751;-53
2022/11/13 10:18:22;;;;;;;14.33;11.90;;;;;;;10.59;100.00;102338.84;4971716;28;20443;-53
2022/11/13 10:20:53;;;;;;;15.73;11.83;;;;;;;10.72;100.00;102332.16;4972944;28;20229;-53
2022/11/13 10:23:21;;;;;;;13.50;11.23;;;;;;;10.80;100.00;102333.22;4973074;28;20237;-54
2022/11/13 10:25:50;;;;;;;14.63;11.00;;;;;;;10.71;100.00;102338.28;4965968;28;20234;-54
2022/11/13 10:28:19;;;;;;;14.10;12.33;;;;;;;10.73;100.00;102341.81;4971602;28;20242;-53
2022/11/13 10:30:47;;;;;;;13.07;11.37;;;;;;;10.78;100.00;102345.47;4977281;28;20241;-53
2022/11/13 10:33:17;;;;;;;13.93;11.87;;;;;;;10.55;100.00;102331.75;4975089;28;20787;-53
2022/11/13 10:35:50;;;;;;;15.53;12.07;;;;;;;10.59;100.00;102332.72;4976955;28;20256;-53
2022/11/13 10:38:21;;;;;;;13.17;11.13;;;;;;;10.72;100.00;102333.06;4977379;28;20242;-53
2022/11/13 10:40:48;;;;;;;13.67;11.63;;;;;;;10.69;100.00;102324.22;4984995;28;20256;-53
2022/11/13 10:43:17;;;;;;;13.10;11.77;;;;;;;10.61;100.00;102323.16;4980023;28;20265;-52
2022/11/13 10:45:55;;;;;;;13.73;11.97;;;;;;;10.59;100.00;102324.84;4978531;28;20230;-53
2022/11/13 10:48:23;;;;;;;14.40;12.20;;;;;;;10.47;100.00;102317.56;4973684;28;20230;-54
2022/11/13 10:50:56;;;;;;;14.03;11.37;;;;;;;10.69;100.00;102319.84;4982781;28;20272;-53
2022/11/13 10:53:24;;;;;;;15.87;13.50;;;;;;;10.66;100.00;102313.63;4984464;28;20245;-53
2022/11/13 10:55:52;;;;;;;15.23;11.90;;;;;;;10.67;100.00;102318.03;4983279;28;20340;-53
2022/11/13 10:58:20;;;;;;;13.33;12.03;;;;;;;10.49;100.00;102311.50;4979861;28;20265;-53
2022/11/13 11:00:48;;;;;;;19.17;12.83;;;;;;;10.59;100.00;102306.44;4970224;28;20238;-53
2022/11/13 11:03:17;;;;;;;12.47;11.13;;;;;;;10.68;100.00;102301.44;4978011;28;20315;-55
2022/11/13 11:05:56;;;;;;;12.70;11.40;;;;;;;10.85;100.00;102302.72;4973944;28;20238;-54
2022/11/13 11:08:28;;;;;;;12.97;10.53;;;;;;;10.69;100.00;102297.94;4980797;28;20257;-53
2022/11/13 11:13:43;;;;;;;13.73;11.27;;;;;;;10.74;100.00;102299.84;4984514;28;20621;-54